createdAt,value
2023-03-28T00:01:24.974Z,-2.60
2023-03-28T00:11:32.131Z,-2.56
2023-03-28T00:21:41.581Z,-2.61
2023-03-28T00:31:47.011Z,-2.70
2023-03-28T00:41:55.655Z,-2.81
2023-03-28T00:52:05.832Z,-2.85
2023-03-28T01:02:12.311Z,-2.95
2023-03-28T01:12:19.275Z,-3.04
2023-03-28T01:22:42.225Z,-2.92
2023-03-28T01:33:26.063Z,-2.45
2023-03-28T01:43:32.916Z,-1.95
2023-03-28T01:53:40.277Z,-1.62
2023-03-28T02:03:45.080Z,-1.47
2023-03-28T02:13:57.808Z,-1.38
2023-03-28T02:24:05.537Z,-1.47
2023-03-28T02:34:11.780Z,-1.66
2023-03-28T02:44:30.084Z,-1.62
2023-03-28T02:54:38.601Z,-1.67
2023-03-28T03:04:46.967Z,-1.64
2023-03-28T03:14:54.013Z,-1.50
2023-03-28T03:25:00.894Z,-1.40
2023-03-28T03:35:09.216Z,-1.32
2023-03-28T03:45:16.665Z,-1.17
2023-03-28T03:55:23.701Z,-0.97
2023-03-28T04:05:31.129Z,-0.83
2023-03-28T04:15:38.444Z,-0.71
2023-03-28T04:25:45.705Z,-0.69
2023-03-28T04:35:52.138Z,-0.68
2023-03-28T04:46:01.035Z,-0.66
2023-03-28T04:56:06.024Z,-0.64
2023-03-28T05:06:10.972Z,-0.63
2023-03-28T05:16:18.063Z,-0.50
2023-03-28T05:26:25.937Z,-0.34
2023-03-28T05:36:33.493Z,-0.19
2023-03-28T05:46:41.377Z,-0.23
2023-03-28T05:56:49.125Z,0.01
2023-03-28T06:06:56.448Z,0.23
2023-03-28T06:17:03.533Z,0.04
2023-03-28T06:27:11.588Z,0.41
2023-03-28T06:37:19.048Z,0.80
2023-03-28T06:47:26.235Z,1.66
2023-03-28T06:57:33.523Z,1.03
2023-03-28T07:07:41.423Z,0.73
2023-03-28T07:17:48.558Z,1.05
2023-03-28T07:27:55.099Z,1.52
2023-03-28T07:38:02.152Z,0.82
2023-03-28T07:48:07.134Z,0.18
2023-03-28T07:58:14.936Z,0.43
2023-03-28T08:08:23.338Z,0.70
2023-03-28T08:18:30.703Z,0.78
2023-03-28T08:28:38.802Z,1.31
2023-03-28T08:38:47.938Z,1.59
2023-03-28T08:48:56.704Z,1.98
2023-03-28T08:59:04.845Z,2.41
2023-03-28T09:09:14.211Z,2.45
2023-03-28T09:19:40.657Z,2.06
2023-03-28T09:29:56.598Z,1.94
2023-03-28T09:40:02.094Z,2.37
2023-03-28T09:50:13.573Z,2.23
2023-03-28T10:00:22.403Z,2.23
2023-03-28T10:10:29.994Z,2.49
2023-03-28T10:20:36.244Z,3.07
2023-03-28T10:30:42.957Z,2.78
2023-03-28T10:40:54.799Z,3.01
2023-03-28T10:51:00.270Z,3.69
2023-03-28T11:11:16.252Z,4.33
2023-03-28T11:21:26.683Z,4.73
2023-03-28T11:31:36.019Z,4.53
2023-03-28T11:41:46.503Z,3.36
2023-03-28T11:51:52.978Z,2.15
2023-03-28T12:01:58.824Z,3.03
2023-03-28T12:12:08.129Z,2.94
2023-03-28T12:22:19.827Z,2.41
2023-03-28T12:32:38.438Z,1.83
2023-03-28T12:42:49.053Z,1.61
2023-03-28T12:52:55.382Z,1.92
2023-03-28T13:03:08.008Z,1.86
2023-03-28T13:13:20.645Z,1.84
2023-03-28T13:23:30.660Z,2.03
2023-03-28T13:33:40.095Z,1.92
2023-03-28T13:43:52.893Z,2.39
2023-03-28T13:54:00.422Z,2.53
2023-03-28T14:04:11.385Z,2.25
2023-03-28T14:14:27.138Z,2.09
2023-03-28T14:24:34.901Z,2.08
2023-03-28T14:34:46.252Z,1.79
2023-03-28T14:44:56.248Z,1.39
2023-03-28T14:55:04.898Z,1.08
2023-03-28T15:05:16.817Z,1.27
2023-03-28T15:15:28.607Z,1.03
2023-03-28T15:25:37.144Z,0.36
2023-03-28T15:35:51.057Z,0.50
2023-03-28T15:45:58.170Z,0.44
2023-03-28T15:56:06.816Z,0.23
2023-03-28T16:06:31.634Z,0.19
2023-03-28T16:16:42.333Z,0.19
2023-03-28T16:26:50.474Z,0.01
2023-03-28T16:36:58.204Z,-0.11
2023-03-28T16:47:05.925Z,-0.22
2023-03-28T16:57:13.141Z,-0.31
2023-03-28T17:07:21.333Z,-0.66
2023-03-28T17:17:29.419Z,-0.77
2023-03-28T17:27:36.911Z,-0.78
2023-03-28T17:37:44.424Z,-0.72
2023-03-28T17:47:51.737Z,-0.69
2023-03-28T17:57:58.996Z,-0.78
2023-03-28T18:08:06.575Z,-0.91
2023-03-28T18:18:13.869Z,-0.97
2023-03-28T18:28:21.681Z,-0.98
2023-03-28T18:38:29.127Z,-0.96
2023-03-28T18:48:37.189Z,-0.99
2023-03-28T18:58:44.243Z,-0.99
2023-03-28T19:08:51.658Z,-0.97
2023-03-28T19:18:58.574Z,-0.95
2023-03-28T19:29:06.203Z,-0.95
2023-03-28T19:39:12.076Z,-0.93
2023-03-28T19:49:19.588Z,-0.95
2023-03-28T19:59:26.769Z,-1.08
2023-03-28T20:09:35.508Z,-1.22
2023-03-28T20:19:43.259Z,-1.33
2023-03-28T20:29:50.615Z,-1.46
2023-03-28T20:39:57.859Z,-1.55
2023-03-28T20:50:05.850Z,-1.65
2023-03-28T21:00:17.599Z,-1.76
2023-03-28T21:10:25.020Z,-1.85
2023-03-28T21:20:32.273Z,-1.93
2023-03-28T21:30:40.484Z,-2.02
2023-03-28T21:40:48.260Z,-2.08
2023-03-28T21:50:54.341Z,-2.16
2023-03-28T22:01:03.135Z,-2.26
2023-03-28T22:11:13.728Z,-2.35
2023-03-28T22:21:21.361Z,-2.46
2023-03-28T22:31:29.606Z,-2.55
2023-03-28T22:41:37.091Z,-2.67
2023-03-28T22:51:44.318Z,-2.82
2023-03-28T23:11:58.242Z,-3.02
2023-03-28T23:22:04.446Z,-3.12
2023-03-28T23:32:11.465Z,-3.22
2023-03-28T23:42:18.671Z,-3.33
2023-03-28T23:52:26.068Z,-3.43
